x

Half Moon Bay - 24nm Ssw Of San Francisco, Ca (46012) Wave Buoy

12:50pm - Tue 23rd Sep 2014 All times are PDT. -7 hours from GMT.

  • Sig Wave height 3.0ft
  • Swell Direction
  • Peak Period 11s
  • Average Period 8s
  • Wind
    4mph
  • Sea Temp 66°f
  • Air Temp 65°f
  • Sea Pressure 1016mb
  • Half Moon Bay - 24nm Ssw Of San Francisco, Ca
  • Half Moon Bay - 24nm Ssw Of San Francisco, Ca

More Historic Weather Station data

Upgrade to MSW Pro to gain access to the past 30 days of data for over 8000 Wavebouys and Weather Stations around the globe.

Join Pro

Comparision Forecast

View Surf forecast
   
Tue 09/23 12:50pm 3ft 11s 8s 4
mph
1016mb 66f 65f
11:50am 3.5ft 10s 8s 4
mph
1016.3mb 65f 65f
10:50am 3.5ft 8s 8s 2
mph
1016.5mb 65f 65f
9:50am 3.5ft 11s 8s 7 9 mph 1016.2mb 65f 65f
8:50am 3.5ft 10s 8s 4 7 mph 1016mb 64f 65f
7:50am 3.5ft 11s 8s 7 9 mph 1015.4mb 64f 64f
6:50am 3.5ft 11s 8s 4 7 mph 1015.2mb 64f 64f
5:50am 3.5ft 9s 8s 7 9 mph 1014.9mb 64f 64f
4:50am 3.5ft 11s 8s 7
mph
1014.8mb 64f 64f
3:50am 3.5ft 11s 8s 7 9 mph 1014.8mb 65f 64f
2:50am 3.5ft 11s 7s 4 7 mph 1014.9mb 65f 64f
12:50am 3.5ft 11s 7s 7 9 mph 1015.4mb 65f 64f
Mon 09/22 11:50pm 3.5ft 11s 7s 4 7 mph 1015.3mb 64f 64f
10:50pm 4ft 11s 7s 11 13 mph 1015.5mb 64f 64f
9:50pm 4ft 11s 7s 9 11 mph 1015.5mb 64f 64f
8:50pm 4.5ft 10s 7s 9 11 mph 1015.1mb 64f 64f
7:50pm 4.5ft 11s 7s 11 13 mph 1015mb 64f 65f
6:50pm 4ft 10s 7s 13 16 mph 1015.1mb 64f 65f
5:50pm 4ft 10s 7s 11 13 mph 1015.2mb 64f 65f
4:50pm 4.5ft 11s 8s 11 13 mph 1015.5mb 64f 65f
3:50pm 4ft 9s 8s 11 13 mph 1015.9mb 65f 65f
2:50pm 4.5ft 10s 9s 9 11 mph 1016.4mb 66f 65f
1:50pm 4ft 11s 8s 9
mph
1016.7mb 66f 65f
12:50pm 4ft 11s 8s 4 7 mph 1016.9mb 65f 65f
11:50am 4.5ft 11s 9s 7
mph
1017.2mb 65f 65f
10:50am 4.5ft 11s 9s 7 11 mph 1017.4mb 65f 65f
9:50am 4.5ft 11s 9s 7 9 mph 1017.2mb 64f 65f
8:50am 4.5ft 11s 9s 9 11 mph 1016.9mb 64f 65f
7:50am 5ft 11s 9s 9 11 mph 1016.5mb 64f 65f
6:50am 5ft 12s 9s 4 7 mph 1015.9mb 64f 64f
5:50am 5ft 11s 9s 7 9 mph 1015.8mb 64f 65f
4:50am 4ft 12s 9s 7 9 mph 1015.9mb 65f 65f
3:50am 4.5ft 12s 9s 4 7 mph 1016.2mb 65f 64f
2:50am 5ft 11s 9s 4 7 mph 1016.3mb 65f 64f
1:50am 4.5ft 11s 9s 4
mph
1016.3mb 65f 64f
12:50am 4.5ft 11s 9s 4 7 mph 1016.1mb 65f 64f
Sun 09/21 11:50pm 5ft 11s 9s 4 7 mph 1016.2mb 64f 64f
10:50pm 5.5ft 11s 9s 7
mph
1016.3mb 64f 65f
9:50pm 5.5ft 11s 9s 4
mph
1016.4mb 65f 65f
8:50pm 6ft 12s 9s 7
mph
1016.3mb 65f 65f
7:50pm 5.5ft 11s 9s 9 11 mph 1015.8mb 65f 65f
6:50pm 6ft 12s 9s 9 11 mph 1015.9mb 65f 65f
5:50pm 6.5ft 12s 10s 7 11 mph 1015.9mb 65f 65f
4:50pm 5.5ft 11s 9s 9
mph
1015.9mb 65f 65f
3:50pm 5ft 12s 9s 7
mph
1016mb 66f 65f
2:50pm 6ft 13s 9s 4
mph
1015.9mb 65f 66f
1:50pm 5.5ft 12s 9s 4 7 mph 1016.3mb 65f 65f
12:50pm 6ft 11s 9s 2 4 mph 1016.6mb 65f 65f
11:50am 6.5ft 12s 10s 4 7 mph 1016.7mb 65f 65f
10:50am 6ft 12s 10s 4 7 mph 1016.4mb 65f 65f
9:50am 7ft 12s 10s 4
mph
1016.1mb 65f 65f
8:50am 6.5ft 12s 9s 4
mph
1015.6mb 65f 65f
7:50am 6ft 13s 9s 2 4 mph 1015.4mb 65f 64f
6:50am 7ft 13s 10s 4 7 mph 1015mb 65f 64f
5:50am 7ft 12s 10s 4 7 mph 1014.3mb 65f 64f
4:50am 7ft 13s 10s 4 7 mph 1014.1mb 65f 64f
3:50am 6.5ft 12s 10s 7 9 mph 1014.1mb 65f 64f
2:50am 7.5ft 13s 10s 7 9 mph 1014.2mb 65f 64f
1:50am 6.5ft 12s 10s 4 9 mph 1014.4mb 65f 64f
12:50am 7ft 13s 10s 4 9 mph 1014.2mb 65f 63f
Sat 09/20 11:50pm 6ft 13s 10s 7 9 mph 1014.1mb 65f 63f
10:50pm 5ft 14s 9s 9 13 mph 1013.9mb 65f 63f
9:50pm 5ft 13s 8s 4 7 mph 1014.2mb 65f 64f
8:50pm 5ft 14s 9s 4 7 mph 1013.9mb 65f 64f
7:50pm 4.5ft 14s 8s 4
mph
1013.7mb 65f 64f
6:50pm 4.5ft 14s 8s 7 11 mph 1013mb 65f 64f
5:50pm 4.5ft 15s 8s 4 9 mph 1013mb 65f 64f
4:50pm 4.5ft 14s 8s 4 7 mph 1013.3mb 65f 64f
3:50pm 4.5ft 15s 8s 7 9 mph 1013.4mb 65f 64f
2:50pm 4ft 14s 7s 4 9 mph 1013.5mb 65f 64f
1:50pm 4.5ft 14s 7s 7 9 mph 1014mb 65f 64f
12:50pm 4.5ft 14s 8s 9
mph
1014.3mb 65f 63f
11:50am 4.5ft 14s 8s 7 9 mph 1014.4mb 65f 63f
10:50am 4.5ft 14s 7s 7 9 mph 1014.3mb 65f 63f
9:50am 4.5ft 15s 7s 7 9 mph 1013.9mb 65f 62f
8:50am 4.5ft 7s 7s 4 9 mph 1013.6mb 65f 62f
7:50am 4.5ft 15s 7s 4 9 mph 1013.1mb 64f 62f
6:50am 5ft 14s 8s 4 9 mph 1012.3mb 64f 62f
5:50am 5ft 15s 8s 4
mph
1012.1mb 64f 62f
4:50am 4.5ft 15s 8s 4 7 mph 1012mb 64f 62f
3:50am 4.5ft 15s 8s 2 4 mph 1012.1mb 64f 61f
2:50am 5ft 15s 8s 4 7 mph 1012.3mb 64f 61f
1:50am 4.5ft 15s 8s 4 7 mph 1012.3mb 64f 62f
12:50am 4.5ft 15s 8s 7 9 mph 1012.2mb 64f 62f
Fri 09/19 11:50pm 4.5ft 15s 8s 4 9 mph 1012.5mb 65f 63f
10:50pm 4.5ft 15s 8s 2 4 mph 1012.6mb 64f 63f
9:50pm 4.5ft 15s 8s 4 7 mph 1012.5mb 64f 63f
8:50pm 4.5ft 15s 8s 4 7 mph 1012.1mb 65f 63f